Wednesday, September 2, 2015, 8:45 AM EDT

KDYL, Doylestown Airport

Location: Doylestown, PA, United States Lat: 40.333
Local Time: 8:45 AM EDT (12:45 GMT) Lon: -75.117
Time Zone: US/Eastern Elev: 393 ft

Show me the last for .
Show Decoded

2015-09-02 07:54 METAR KDYL 021154Z AUTO 00000KT 6SM BR SCT055 19/19 A3005 RMK AO2 SLP171
                 T01940194 10200 20178 53006 $ =
2015-09-02 06:54 METAR KDYL 021054Z AUTO 00000KT 4SM BR SCT060 18/18 A3005 RMK AO2 SLP170
                 T01780178 $ =
2015-09-02 05:54 METAR KDYL 020954Z AUTO 00000KT 6SM BR CLR 18/18 A3003 RMK AO2 SLP164 T01780178
                 $ =
2015-09-02 04:54 METAR KDYL 020854Z AUTO 00000KT 5SM BR CLR 18/18 A3003 RMK AO2 SLP163 T01830183
                 56007 $ =
2015-09-02 03:54 METAR KDYL 020754Z AUTO 04003KT 9SM CLR 19/18 A3003 RMK AO2 SLP164 T01890183 $ =
2015-09-02 02:54 METAR KDYL 020654Z AUTO 00000KT 9SM CLR 19/19 A3004 RMK AO2 SLP166 T01940189 $ =
2015-09-02 01:54 METAR KDYL 020554Z AUTO 00000KT 9SM CLR 19/19 A3005 RMK AO2 SLP171 T01940189
                 10244 20189 58004 $ =
2015-09-02 00:54 METAR KDYL 020454Z AUTO 00000KT 10SM CLR 20/19 A3006 RMK AO2 SLP173 T02000189
                 403110189 $ =
2015-09-01 23:54 METAR KDYL 020354Z AUTO 00000KT 10SM FEW055 22/19 A3006 RMK AO2 SLP174 T02170189
                 $ =
2015-09-01 22:54 METAR KDYL 020254Z AUTO 00000KT 10SM CLR 22/19 A3006 RMK AO2 SLP175 T02220189
                 51013 $ =
2015-09-01 21:54 METAR KDYL 020154Z AUTO 14003KT 10SM CLR 23/19 A3005 RMK AO2 SLP171 T02280194 $
                 =
2015-09-01 20:54 METAR KDYL 020054Z AUTO 14004KT 10SM CLR 24/19 A3004 RMK AO2 SLP168 T02440189 $
                 =
2015-09-01 18:54 METAR KDYL 012254Z AUTO 00000KT 10SM CLR 27/17 A3002 RMK AO2 SLP160 T02670172 $
                 =
2015-09-01 17:54 METAR KDYL 012154Z AUTO 01004KT 10SM CLR 29/17 A3002 RMK AO2 SLP159 T02940172 $
                 =
2015-09-01 16:54 METAR KDYL 012054Z AUTO 00000KT 10SM CLR 30/16 A3002 RMK AO2 SLP160 T03000156
                 56010 $ =
2015-09-01 16:22 METAR KDYL 012022Z AUTO VRB03KT 10SM FEW002 31/16 A3002 RMK AO2 T03060156 $ =
2015-09-01 15:54 METAR KDYL 011954Z AUTO 00000KT 10SM CLR 29/17 A3002 RMK AO2 SLP160 T02940167 =
2015-09-01 14:54 METAR KDYL 011854Z AUTO 04004KT 10SM CLR 31/18 A3004 RMK AO2 SLP165 T03060178 =
2015-09-01 13:54 METAR KDYL 011754Z AUTO VRB04KT 10SM FEW043 30/17 A3005 RMK AO2 SLP169 T03000172
                 10300 20206 56010 =
2015-09-01 12:54 METAR KDYL 011654Z AUTO 32007KT 10SM FEW037 29/18 A3006 RMK AO2 SLP172 T02940183
                 =
2015-09-01 11:54 METAR KDYL 011554Z AUTO 36006KT 10SM FEW035 29/19 A3007 RMK AO2 SLP174 T02890189
                 =
2015-09-01 10:54 METAR KDYL 011454Z AUTO 01006KT 10SM CLR 28/19 A3008 RMK AO2 SLP178 T02780194
                 53007 =
2015-09-01 09:54 METAR KDYL 011354Z AUTO 03007KT 10SM CLR 26/19 A3007 RMK AO2 SLP176 T02610194 =
2015-09-01 08:54 METAR KDYL 011254Z AUTO 01004KT 10SM CLR 24/21 A3007 RMK AO2 SLP175 T02440206 =

Support USWX by starting your Amazon purchase here.